Time;durP1;ratioP1;P1;durP2;ratioP2;P2;SDS_P1;SDS_P2;PMS_P1;PMS_P2;Temp;Humidity;BMP_temperature;BMP_pressure;BME280_temperature;BME280_humidity;BME280_pressure;Samples;Min_cycle;Max_cycle;Signal;HPM_P1;HPM_P2
2021/06/23 00:01:15;;;;;;;;;35.25;33.00;;;;;17.96;61.64;101292.44;5081358;27;47224;-59
2021/06/23 00:03:41;;;;;;;;;35.75;33.25;;;;;17.93;61.50;101297.00;5096992;27;45673;-59
2021/06/23 00:06:07;;;;;;;;;34.75;32.50;;;;;17.93;61.58;101293.44;5080313;27;45728;-59
2021/06/23 00:08:32;;;;;;;;;37.75;34.00;;;;;17.92;61.74;101289.00;5081263;27;45874;-59
2021/06/23 00:10:59;;;;;;;;;35.25;31.75;;;;;17.90;61.79;101293.53;5079828;28;48180;-59
2021/06/23 00:13:27;;;;;;;;;35.00;32.00;;;;;17.89;61.49;101283.75;5074571;28;45281;-59
2021/06/23 00:15:53;;;;;;;;;41.75;36.00;;;;;17.86;61.89;101290.13;5080794;27;45363;-60
2021/06/23 00:18:18;;;;;;;;;40.25;34.50;;;;;17.84;61.93;101286.63;5081222;28;45667;-60
2021/06/23 00:20:44;;;;;;;;;34.25;31.00;;;;;17.82;62.04;101283.16;5078058;28;46976;-60
2021/06/23 00:23:09;;;;;;;;;31.00;30.00;;;;;17.80;62.14;101286.84;5071277;28;45401;-59
2021/06/23 00:25:35;;;;;;;;;36.25;33.00;;;;;17.78;62.03;101286.88;5080803;27;45417;-59
2021/06/23 00:28:00;;;;;;;;;34.00;31.25;;;;;17.78;61.90;101288.69;5079637;27;45322;-60
2021/06/23 00:30:26;;;;;;;;;32.25;31.25;;;;;17.76;62.10;101296.81;5076664;27;45699;-60
2021/06/23 00:32:54;;;;;;;;;35.75;30.25;;;;;17.78;62.14;101294.06;5061892;28;45287;-59
2021/06/23 00:35:20;;;;;;;;;36.00;30.50;;;;;17.76;62.13;101285.22;5061932;28;45441;-59
2021/06/23 00:37:45;;;;;;;;;39.50;34.50;;;;;17.74;61.92;101287.97;5060109;28;45327;-59
2021/06/23 00:40:12;;;;;;;;;31.25;29.50;;;;;17.74;62.33;101293.34;5069407;28;47560;-59
2021/06/23 00:42:40;;;;;;;;;32.75;31.50;;;;;17.71;62.15;101289.91;5071602;27;46203;-60
2021/06/23 00:45:14;;;;;;;;;31.75;31.75;;;;;17.71;62.27;101289.91;5075495;28;45471;-60
2021/06/23 00:47:45;;;;;;;;;32.50;30.50;;;;;17.68;62.01;101298.94;5079124;27;45580;-59
2021/06/23 00:50:12;;;;;;;;;32.75;30.75;;;;;17.68;62.02;101295.38;5079808;27;46998;-59
2021/06/23 00:52:37;;;;;;;;;31.75;29.25;;;;;17.67;62.44;101299.00;5079876;27;45290;-60
2021/06/23 00:55:03;;;;;;;;;31.75;29.25;;;;;17.64;62.22;101302.66;5076428;27;45368;-60
2021/06/23 00:57:31;;;;;;;;;38.50;33.25;;;;;17.62;61.98;101293.81;5075544;28;45404;-60
2021/06/23 00:59:57;;;;;;;;;30.75;28.75;;;;;17.62;62.37;101299.19;5060991;28;48320;-60
2021/06/23 01:02:24;;;;;;;;;28.00;27.50;;;;;17.60;62.38;101295.69;5080104;27;45296;-59
2021/06/23 01:04:52;;;;;;;;;33.00;30.50;;;;;17.58;61.97;101301.13;5078739;28;45756;-59
2021/06/23 01:07:19;;;;;;;;;32.50;30.50;;;;;17.57;61.80;101298.50;5070999;27;45737;-60
2021/06/23 01:09:45;;;;;;;;;30.25;29.75;;;;;17.56;62.11;101294.94;5080163;27;45360;-60
2021/06/23 01:12:34;;;;;;;;;31.75;29.00;;;;;17.57;62.36;101299.38;5079542;27;45444;-60
2021/06/23 01:15:00;;;;;;;;;32.75;30.00;;;;;17.58;62.16;101300.25;5075169;28;45660;-60
2021/06/23 01:17:29;;;;;;;;;30.25;29.00;;;;;17.59;62.35;101299.31;5074210;28;45591;-60
2021/06/23 01:20:06;;;;;;;;;33.25;30.00;;;;;17.57;62.28;101293.13;5079725;27;48515;-61
2021/06/23 01:22:33;;;;;;;;;34.50;32.75;;;;;17.56;61.94;101296.75;5069853;27;45470;-59
2021/06/23 01:24:58;;;;;;;;;39.75;32.75;;;;;17.53;62.20;101294.19;5071943;27;45741;-59
2021/06/23 01:27:24;;;;;;;;;31.75;29.50;;;;;17.54;62.04;101293.28;5076726;28;45238;-59
2021/06/23 01:29:49;;;;;;;;;35.25;31.75;;;;;17.53;62.21;101292.41;5079254;27;47303;-59
2021/06/23 01:32:16;;;;;;;;;36.75;32.50;;;;;17.57;62.19;101295.81;5078368;27;45385;-59
2021/06/23 01:34:42;;;;;;;;;46.75;35.00;;;;;17.57;62.49;101299.38;5078927;27;45546;-60
2021/06/23 01:37:09;;;;;;;;;37.25;32.50;;;;;17.57;62.50;101302.06;5095696;27;45582;-58
2021/06/23 01:39:34;;;;;;;;;50.75;40.75;;;;;17.57;62.38;101302.06;5079721;27;47014;-60
2021/06/23 01:42:00;;;;;;;;;34.00;30.25;;;;;17.56;62.36;101300.31;5071496;27;45480;-60
2021/06/23 01:44:28;;;;;;;;;30.00;28.50;;;;;17.57;62.57;101299.38;5078222;28;45339;-59
2021/06/23 01:46:53;;;;;;;;;35.00;32.50;;;;;17.60;62.47;101298.38;5088386;27;45527;-60
2021/06/23 01:49:25;;;;;;;;;36.25;33.50;;;;;17.60;62.14;101293.00;5078666;28;47147;-59
2021/06/23 01:51:52;;;;;;;;;40.25;33.25;;;;;17.58;62.16;101295.75;5079578;27;45341;-59
2021/06/23 01:54:17;;;;;;;;;29.75;28.25;;;;;17.58;62.47;101294.88;5077508;27;45639;-59
2021/06/23 01:56:43;;;;;;;;;36.25;31.00;;;;;17.56;62.59;101300.31;5077895;28;45489;-60
2021/06/23 01:59:09;;;;;;;;;36.25;32.75;;;;;17.56;62.30;101302.13;5079493;27;47177;-59
2021/06/23 02:02:00;;;;;;;;;34.50;33.75;;;;;17.54;62.48;101295.97;5079578;27;45370;-59
2021/06/23 02:04:35;;;;;;;;;36.25;34.25;;;;;17.54;62.32;101293.28;5074710;27;45373;-59
2021/06/23 02:07:16;;;;;;;;;34.00;31.75;;;;;17.54;62.73;101298.66;5078249;28;45285;-59
2021/06/23 02:10:02;;;;;;;;;36.25;31.00;;;;;17.51;62.43;101293.38;5079346;27;46382;-59
2021/06/23 02:12:31;;;;;;;;;32.25;30.75;;;;;17.52;62.34;101293.31;5076558;27;45484;-59
2021/06/23 02:14:57;;;;;;;;;38.50;33.75;;;;;17.54;62.69;101287.91;5079015;28;45685;-59
2021/06/23 02:17:25;;;;;;;;;39.00;35.25;;;;;17.53;62.80;101294.19;5079489;28;45825;-59
2021/06/23 02:19:53;;;;;;;;;30.25;30.00;;;;;17.53;62.55;101288.81;5078232;27;47630;-60
2021/06/23 02:22:27;;;;;;;;;30.25;30.25;;;;;17.54;62.45;101280.72;5074815;27;45908;-60
2021/06/23 02:25:13;;;;;;;;;35.00;29.50;;;;;17.56;62.63;101288.72;5072406;28;45818;-60
2021/06/23 02:27:40;;;;;;;;;31.50;28.75;;;;;17.52;62.15;101281.69;5077940;28;45537;-59
2021/06/23 02:30:07;;;;;;;;;29.50;29.50;;;;;17.51;62.64;101279.97;5074611;27;49283;-60
2021/06/23 02:32:34;;;;;;;;;33.50;32.50;;;;;17.52;62.53;101276.34;5078387;27;45687;-60
2021/06/23 02:35:04;;;;;;;;;25.75;24.25;;;;;17.51;62.55;101283.50;5068553;27;45601;-60
2021/06/23 02:37:30;;;;;;;;;32.00;30.75;;;;;17.50;62.59;101283.59;5069628;27;45582;-60
2021/06/23 02:39:57;;;;;;;;;33.00;30.50;;;;;17.49;62.66;101290.75;5060648;28;48599;-60
2021/06/23 02:42:24;;;;;;;;;29.00;27.00;;;;;17.50;62.75;101288.94;5069017;28;45334;-59
2021/06/23 02:44:50;;;;;;;;;32.75;30.00;;;;;17.48;62.52;101299.75;5066659;28;45654;-61
2021/06/23 02:47:17;;;;;;;;;31.25;29.50;;;;;17.46;62.78;101293.59;5080812;27;45451;-60
2021/06/23 02:49:43;;;;;;;;;29.75;26.75;;;;;17.49;62.85;101297.94;5058231;28;48238;-60
2021/06/23 02:52:09;;;;;;;;;28.50;26.25;;;;;17.46;62.92;101293.59;5078410;27;45990;-60
2021/06/23 02:54:35;;;;;;;;;33.00;30.25;;;;;17.44;62.66;101299.94;5077469;27;45297;-60
2021/06/23 02:57:01;;;;;;;;;25.50;24.00;;;;;17.42;62.96;101308.06;5078039;27;45569;-60
2021/06/23 02:59:27;;;;;;;;;30.50;27.00;;;;;17.43;62.98;101300.88;5094150;27;46538;-60
2021/06/23 03:01:52;;;;;;;;;27.25;26.75;;;;;17.44;62.93;101297.28;5071949;27;45255;-57
2021/06/23 03:04:18;;;;;;;;;24.75;24.25;;;;;17.43;62.90;101299.09;5060438;28;45436;-57
2021/06/23 03:06:43;;;;;;;;;32.25;30.50;;;;;17.42;63.07;101300.03;5078765;28;45268;-58
2021/06/23 03:09:09;;;;;;;;;25.75;24.25;;;;;17.41;62.57;101300.97;5077088;28;46839;-57
2021/06/23 03:11:36;;;;;;;;;31.75;29.75;;;;;17.42;62.96;101300.03;5078134;27;45344;-59
2021/06/23 03:14:02;;;;;;;;;25.25;24.00;;;;;17.43;62.97;101292.84;5077804;28;45379;-58
2021/06/23 03:16:28;;;;;;;;;25.00;25.00;;;;;17.43;63.07;101296.41;5078260;28;45349;-57
2021/06/23 03:18:54;;;;;;;;;23.50;21.75;;;;;17.44;62.96;101297.28;5078254;27;47257;-58
2021/06/23 03:21:20;;;;;;;;;26.25;25.25;;;;;17.43;63.25;101295.53;5064660;27;45290;-58
2021/06/23 03:23:47;;;;;;;;;21.00;21.00;;;;;17.44;62.96;101292.78;5065282;28;45430;-58
2021/06/23 03:26:13;;;;;;;;;20.25;20.00;;;;;17.45;63.10;101291.84;5078047;27;45366;-59
2021/06/23 03:28:38;;;;;;;;;24.00;20.50;;;;;17.44;62.86;101291.91;5078081;28;46102;-59
2021/06/23 03:31:04;;;;;;;;;20.25;20.25;;;;;17.44;62.98;101294.59;5077322;27;45396;-59
2021/06/23 03:33:30;;;;;;;;;26.25;22.25;;;;;17.45;63.32;101291.84;5078262;27;45345;-59
2021/06/23 03:35:55;;;;;;;;;26.25;26.25;;;;;17.45;62.97;101299.00;5058499;28;45527;-59
2021/06/23 03:38:21;;;;;;;;;26.25;24.50;;;;;17.44;63.45;101289.22;5058025;28;45364;-59
2021/06/23 03:40:46;;;;;;;;;21.50;21.25;;;;;17.43;63.03;101301.75;5057118;28;45360;-59
2021/06/23 03:43:12;;;;;;;;;26.75;22.25;;;;;17.40;63.10;101292.94;5061267;28;45556;-59
2021/06/23 03:45:37;;;;;;;;;24.00;19.75;;;;;17.39;62.96;101286.69;5075006;27;45275;-59
2021/06/23 03:48:03;;;;;;;;;23.50;23.50;;;;;17.38;63.15;101298.38;5079281;27;47334;-59
2021/06/23 03:50:29;;;;;;;;;26.25;24.25;;;;;17.38;63.48;101301.06;5077380;27;45330;-59
2021/06/23 03:52:55;;;;;;;;;21.75;20.75;;;;;17.37;63.30;101304.69;5076577;27;45298;-59
2021/06/23 03:55:21;;;;;;;;;25.25;25.00;;;;;17.36;63.25;101305.63;5073483;28;45380;-59
2021/06/23 03:57:50;;;;;;;;;23.50;18.50;;;;;17.35;63.14;101307.44;5076241;28;48215;-59
2021/06/23 04:00:18;;;;;;;;;25.25;23.75;;;;;17.34;63.36;101303.00;5080136;27;45788;-59
2021/06/23 04:02:43;;;;;;;;;22.00;21.75;;;;;17.33;63.61;101303.94;5077006;28;45438;-59
2021/06/23 04:05:10;;;;;;;;;22.00;20.25;;;;;17.33;63.49;101316.47;5062251;28;45341;-59
2021/06/23 04:07:36;;;;;;;;;27.00;22.25;;;;;17.34;63.48;101312.84;5060581;28;46918;-59
2021/06/23 04:10:03;;;;;;;;;23.00;22.50;;;;;17.33;63.34;101314.66;5060784;28;45428;-63
2021/06/23 04:12:29;;;;;;;;;27.50;25.75;;;;;17.33;63.55;101317.34;5073364;28;45373;-59
2021/06/23 04:14:54;;;;;;;;;24.50;23.00;;;;;17.33;63.40;101311.97;5080672;27;45455;-55
2021/06/23 04:17:20;;;;;;;;;24.25;23.00;;;;;17.34;63.21;101304.81;5081186;28;46210;-57
2021/06/23 04:19:45;;;;;;;;;28.50;26.25;;;;;17.34;63.54;101318.22;5080044;27;45976;-57
2021/06/23 04:22:11;;;;;;;;;24.25;24.25;;;;;17.33;63.47;101314.66;5075092;28;45733;-58
2021/06/23 04:24:36;;;;;;;;;25.25;23.25;;;;;17.31;63.27;101316.53;5080860;27;45369;-58
2021/06/23 04:27:02;;;;;;;;;21.75;19.75;;;;;17.31;63.34;101315.66;5079215;28;47086;-58
2021/06/23 04:29:27;;;;;;;;;25.00;25.00;;;;;17.32;63.47;101328.16;5080895;28;45926;-58
2021/06/23 04:31:53;;;;;;;;;33.00;29.25;;;;;17.31;63.24;101321.91;5066504;27;45427;-58
2021/06/23 04:34:18;;;;;;;;;24.50;22.00;;;;;17.32;63.83;101328.16;5067662;28;46765;-57
2021/06/23 04:36:44;;;;;;;;;28.25;26.00;;;;;17.31;63.34;101331.78;5096371;27;47052;-57
2021/06/23 04:39:10;;;;;;;;;23.33;20.67;;;;;17.30;63.74;101336.25;5071986;27;45481;-57
2021/06/23 04:41:35;;;;;;;;;21.75;21.25;;;;;17.32;63.51;101344.25;5059875;28;45416;-57
2021/06/23 04:44:01;;;;;;;;;25.50;25.00;;;;;17.32;63.63;101330.81;5067378;28;45452;-57
2021/06/23 04:46:28;;;;;;;;;24.00;23.00;;;;;17.32;63.31;101339.75;5103110;27;46131;-55
2021/06/23 04:48:54;;;;;;;;;22.50;21.25;;;;;17.33;63.09;101336.13;5065907;28;45405;-56
2021/06/23 04:51:19;;;;;;;;;28.00;25.75;;;;;17.34;63.53;101335.19;5069918;28;45469;-56
2021/06/23 04:53:45;;;;;;;;;25.00;23.50;;;;;17.34;63.39;101334.31;5067176;28;45291;-58
2021/06/23 04:56:10;;;;;;;;;24.50;23.25;;;;;17.34;63.52;101334.31;5074970;27;45690;-58
2021/06/23 04:58:36;;;;;;;;;27.25;25.25;;;;;17.34;63.38;101337.88;5059833;28;45354;-58
2021/06/23 05:01:01;;;;;;;;;26.50;23.25;;;;;17.36;63.74;101336.00;5061321;27;45589;-57
2021/06/23 05:03:27;;;;;;;;;20.67;17.67;;;;;17.37;63.65;101336.88;5084147;27;45566;-56
2021/06/23 05:05:56;;;;;;;;;23.50;22.25;;;;;17.36;63.42;101338.69;5080166;27;47231;-58
2021/06/23 05:08:22;;;;;;;;;24.75;23.00;;;;;17.38;63.18;101340.44;5069731;27;45436;-57
2021/06/23 05:10:48;;;;;;;;;29.00;25.50;;;;;17.38;63.69;101337.75;5068261;28;45597;-57
2021/06/23 05:13:13;;;;;;;;;24.50;23.00;;;;;17.38;63.53;101343.13;5073971;28;45327;-57
2021/06/23 05:15:39;;;;;;;;;21.00;21.00;;;;;17.38;63.85;101343.13;5077587;27;47206;-59
2021/06/23 05:18:04;;;;;;;;;24.25;23.00;;;;;17.38;63.44;101349.34;5079427;27;45791;-58
2021/06/23 05:20:30;;;;;;;;;25.25;20.75;;;;;17.39;63.39;101347.53;5076881;27;45229;-57
2021/06/23 05:22:55;;;;;;;;;27.75;26.00;;;;;17.38;63.51;101349.34;5068733;27;45774;-59
2021/06/23 05:25:21;;;;;;;;;29.50;26.50;;;;;17.39;63.48;101351.09;5061498;28;45343;-57
2021/06/23 05:27:47;;;;;;;;;25.00;22.25;;;;;17.38;63.35;101359.22;5068781;28;45687;-54
2021/06/23 05:30:13;;;;;;;;;25.75;24.25;;;;;17.37;63.28;101366.38;5073746;28;45467;-56
2021/06/23 05:32:39;;;;;;;;;28.75;25.75;;;;;17.36;63.62;101360.16;5074863;28;45300;-58
2021/06/23 05:35:05;;;;;;;;;28.00;26.75;;;;;17.38;63.79;101364.56;5075937;28;46955;-57
2021/06/23 05:37:31;;;;;;;;;28.50;24.50;;;;;17.36;63.74;101360.16;5078093;28;45634;-58
2021/06/23 05:39:57;;;;;;;;;23.50;22.25;;;;;17.36;63.75;101368.19;5074406;27;45293;-57
2021/06/23 05:42:23;;;;;;;;;22.00;21.50;;;;;17.39;63.63;101369.00;5066334;27;45298;-59
2021/06/23 05:44:48;;;;;;;;;28.00;24.75;;;;;17.40;63.77;101366.25;5077504;27;47345;-58
2021/06/23 05:47:15;;;;;;;;;28.00;25.00;;;;;17.41;63.79;101368.03;5077622;27;45417;-58
2021/06/23 05:49:40;;;;;;;;;25.75;21.75;;;;;17.43;63.52;101363.47;5094597;27;45588;-58
2021/06/23 05:52:06;;;;;;;;;22.25;22.25;;;;;17.45;63.55;101363.41;5065620;28;45288;-58
2021/06/23 05:54:32;;;;;;;;;22.75;22.50;;;;;17.47;63.82;101369.59;5092483;27;47556;-58
2021/06/23 05:56:57;;;;;;;;;30.25;28.00;;;;;17.49;63.54;101373.06;5062562;28;46003;-59
2021/06/23 05:59:23;;;;;;;;;29.00;27.25;;;;;17.47;63.36;101373.16;5059463;28;45615;-61
2021/06/23 06:01:48;;;;;;;;;25.50;23.00;;;;;17.45;63.72;101372.34;5072765;28;45475;-60
2021/06/23 06:04:14;;;;;;;;;27.50;24.25;;;;;17.42;63.63;101375.16;5060728;28;47091;-60
2021/06/23 06:06:39;;;;;;;;;24.50;24.50;;;;;17.41;63.71;101381.44;5078395;27;45394;-59
2021/06/23 06:09:05;;;;;;;;;29.50;24.50;;;;;17.42;63.67;101371.59;5079499;27;45577;-59
2021/06/23 06:11:31;;;;;;;;;26.50;26.25;;;;;17.44;63.47;101384.00;5073473;27;45431;-59
2021/06/23 06:13:57;;;;;;;;;27.75;25.00;;;;;17.48;63.40;101380.25;5077869;27;47432;-60
2021/06/23 06:16:22;;;;;;;;;21.75;21.25;;;;;17.47;63.51;101386.56;5078527;27;45557;-60
2021/06/23 06:18:48;;;;;;;;;22.75;22.00;;;;;17.48;63.24;101388.31;5078621;28;45770;-59
2021/06/23 06:21:14;;;;;;;;;28.00;24.50;;;;;17.46;63.32;101387.50;5066423;27;45389;-59
2021/06/23 06:23:40;;;;;;;;;23.25;20.50;;;;;17.49;63.09;101398.09;5058942;28;48479;-60
2021/06/23 06:26:06;;;;;;;;;24.75;24.00;;;;;17.51;63.18;101395.34;5071303;28;45647;-61
2021/06/23 06:28:31;;;;;;;;;27.00;25.00;;;;;17.52;63.05;101405.16;5058503;28;45341;-60
2021/06/23 06:30:57;;;;;;;;;27.00;24.50;;;;;17.50;63.31;101394.47;5064590;28;45629;-60
2021/06/23 06:33:22;;;;;;;;;22.25;21.25;;;;;17.51;63.18;101404.28;5074788;28;48150;-57
2021/06/23 06:35:48;;;;;;;;;25.75;21.50;;;;;17.53;63.36;101407.81;5078684;27;45449;-59
2021/06/23 06:38:14;;;;;;;;;24.25;20.75;;;;;17.54;62.93;101400.63;5071748;27;45486;-60
2021/06/23 06:40:39;;;;;;;;;26.00;26.00;;;;;17.58;63.31;101415.66;5076876;27;45473;-60
2021/06/23 06:43:05;;;;;;;;;28.25;25.75;;;;;17.58;62.97;101423.72;5076459;27;47391;-57
2021/06/23 06:45:30;;;;;;;;;29.25;28.00;;;;;17.56;63.10;101414.84;5073338;27;45464;-55
2021/06/23 06:47:56;;;;;;;;;31.25;25.25;;;;;17.53;63.33;101414.94;5064282;27;45356;-56
2021/06/23 06:50:22;;;;;;;;;31.75;29.50;;;;;17.50;63.36;101420.44;5058500;28;45822;-57
2021/06/23 06:52:47;;;;;;;;;28.25;25.25;;;;;17.51;63.59;101424.88;5057833;28;48139;-59
2021/06/23 06:55:20;;;;;;;;;33.25;29.75;;;;;17.52;63.59;101424.81;5062025;27;45670;-56
2021/06/23 06:57:47;;;;;;;;;26.75;25.25;;;;;17.53;63.44;101425.69;5090918;27;45638;-55
2021/06/23 07:00:13;;;;;;;;;27.25;25.00;;;;;17.53;63.65;101431.94;5069709;28;45590;-56
2021/06/23 07:02:38;;;;;;;;;29.50;28.00;;;;;17.54;63.35;101424.78;5075427;28;47455;-57
2021/06/23 07:05:04;;;;;;;;;30.25;28.50;;;;;17.55;63.67;101430.06;5059125;28;45349;-57
2021/06/23 07:07:30;;;;;;;;;29.50;25.75;;;;;17.54;63.52;101433.69;5061435;28;45564;-55
2021/06/23 07:09:56;;;;;;;;;30.00;28.50;;;;;17.53;63.13;101433.72;5093256;27;45350;-59
2021/06/23 07:12:21;;;;;;;;;28.00;26.25;;;;;17.51;63.06;101428.44;5065715;27;47254;-60
2021/06/23 07:14:47;;;;;;;;;30.25;27.50;;;;;17.51;63.07;101427.56;5085508;27;45554;-59
2021/06/23 07:17:12;;;;;;;;;29.75;27.75;;;;;17.50;63.29;101437.41;5077699;28;45378;-59
2021/06/23 07:19:37;;;;;;;;;29.75;27.75;;;;;17.48;63.18;101430.38;5078470;27;45360;-59
2021/06/23 07:22:03;;;;;;;;;26.75;26.50;;;;;17.49;63.65;101440.16;5068258;27;46848;-60
2021/06/23 07:24:29;;;;;;;;;28.00;23.00;;;;;17.50;63.45;101434.72;5092705;27;45788;-60
2021/06/23 07:26:58;;;;;;;;;26.75;24.50;;;;;17.51;63.40;101439.16;5077085;27;45419;-59
2021/06/23 07:29:25;;;;;;;;;30.50;27.25;;;;;17.54;63.60;101448.94;5064234;28;45365;-57
2021/06/23 07:37:06;;;;;;;;;26.00;25.50;;;;;17.51;63.40;101441.84;5081367;28;45362;-59
2021/06/23 07:39:33;;;;;;;;;29.75;28.50;;;;;17.52;63.39;101437.34;5074428;27;45426;-58
2021/06/23 07:42:00;;;;;;;;;31.25;28.25;;;;;17.53;63.44;101441.78;5060314;28;45374;-61
2021/06/23 07:47:23;;;;;;;;;28.50;24.25;;;;;17.53;63.20;101448.06;5070293;27;45404;-59
2021/06/23 07:49:49;;;;;;;;;24.50;24.00;;;;;17.52;63.06;101448.09;5076427;27;45672;-60
2021/06/23 07:52:24;;;;;;;;;26.25;25.25;;;;;17.56;63.57;101449.75;5080876;28;46854;-60
2021/06/23 08:10:58;;;;;;;;;29.00;26.50;;;;;17.64;63.13;101452.97;5080526;27;45366;-59
2021/06/23 08:13:23;;;;;;;;;22.50;21.50;;;;;17.65;62.77;101455.59;5078888;27;46549;-58
2021/06/23 08:15:50;;;;;;;;;25.00;24.50;;;;;17.67;62.97;101460.94;5073489;28;45349;-59
2021/06/23 08:18:20;;;;;;;;;24.00;19.25;;;;;17.67;62.94;101455.56;5071010;28;45394;-58
2021/06/23 08:20:48;;;;;;;;;26.00;24.50;;;;;17.67;62.91;101458.25;5073622;28;45480;-59
2021/06/23 08:23:14;;;;;;;;;25.50;24.25;;;;;17.69;63.00;101456.41;5070940;28;45755;-60
2021/06/23 08:25:42;;;;;;;;;23.75;23.00;;;;;17.69;62.70;101453.72;5093687;27;45602;-60
2021/06/23 08:28:08;;;;;;;;;32.00;30.00;;;;;17.70;62.93;101443.84;5094653;27;45508;-59
2021/06/23 08:30:34;;;;;;;;;21.25;21.25;;;;;17.73;63.10;101449.09;5065783;28;45302;-61
2021/06/23 08:33:01;;;;;;;;;29.50;25.50;;;;;17.77;62.46;101446.22;5063505;28;47168;-60
2021/06/23 08:35:26;;;;;;;;;26.25;24.50;;;;;17.78;62.80;101450.66;5074438;28;45326;-61
2021/06/23 08:37:52;;;;;;;;;31.25;27.00;;;;;17.80;62.62;101450.63;5072138;28;45734;-60
2021/06/23 08:40:18;;;;;;;;;28.00;25.00;;;;;17.82;62.44;101444.25;5078376;27;45520;-60
2021/06/23 08:42:44;;;;;;;;;26.25;25.25;;;;;17.85;62.21;101445.94;5077919;27;45307;-60
2021/06/23 08:45:12;;;;;;;;;22.75;22.75;;;;;17.87;62.31;101452.97;5077590;28;45819;-60
2021/06/23 08:47:43;;;;;;;;;25.25;22.00;;;;;17.88;62.14;101452.03;5081741;27;45507;-59
2021/06/23 08:50:11;;;;;;;;;28.75;26.25;;;;;17.88;62.03;101452.03;5081105;27;45477;-59
2021/06/23 08:52:37;;;;;;;;;25.75;24.75;;;;;17.89;61.76;101455.59;5078314;28;48258;-60
2021/06/23 08:55:04;;;;;;;;;22.50;22.00;;;;;17.90;61.75;101455.53;5094762;27;45809;-60
2021/06/23 08:57:31;;;;;;;;;29.00;25.50;;;;;17.92;62.08;101450.13;5064927;28;45581;-60
2021/06/23 08:59:56;;;;;;;;;25.25;25.25;;;;;17.94;61.68;101457.19;5071868;27;45640;-60
2021/06/23 09:02:22;;;;;;;;;26.50;23.75;;;;;17.97;61.47;101447.25;5062280;28;47002;-60
2021/06/23 09:04:59;;;;;;;;;27.50;25.75;;;;;17.99;61.93;101445.38;5075430;28;46022;-60
2021/06/23 09:07:58;;;;;;;;;30.00;25.75;;;;;18.04;61.48;101443.34;5096063;27;45569;-61
2021/06/23 09:10:23;;;;;;;;;22.00;20.50;;;;;18.04;61.18;101457.69;5063901;27;45606;-61
2021/06/23 09:13:01;;;;;;;;;26.00;23.50;;;;;18.04;61.29;101455.00;5077275;27;47249;-60
2021/06/23 09:15:49;;;;;;;;;25.50;23.00;;;;;18.07;61.40;101459.38;5077349;27;45899;-60
2021/06/23 09:18:22;;;;;;;;;28.00;27.75;;;;;18.08;61.40;101451.25;5073859;28;45588;-60
2021/06/23 09:20:51;;;;;;;;;20.50;20.50;;;;;18.10;61.36;101459.22;5078891;27;45506;-60
2021/06/23 09:23:18;;;;;;;;;26.50;24.25;;;;;18.10;61.10;101456.53;5077183;28;48348;-59
2021/06/23 09:25:46;;;;;;;;;27.50;23.75;;;;;18.12;61.27;101457.34;5073147;28;45444;-60
2021/06/23 09:28:18;;;;;;;;;24.50;23.00;;;;;18.13;61.32;101462.66;5071079;27;45908;-59
2021/06/23 09:30:47;;;;;;;;;25.00;25.00;;;;;18.16;61.19;101462.53;5076425;27;45297;-60
2021/06/23 09:33:20;;;;;;;;;21.25;20.25;;;;;18.16;61.13;101465.22;5072137;28;47405;-59
2021/06/23 09:36:12;;;;;;;;;28.25;22.75;;;;;18.18;60.88;101463.38;5087829;27;45428;-59
2021/06/23 09:38:45;;;;;;;;;26.25;25.25;;;;;18.19;60.89;101458.88;5078042;28;45699;-58
2021/06/23 09:41:20;;;;;;;;;25.50;25.00;;;;;18.17;61.13;101466.13;5073775;27;45796;-60
2021/06/23 09:43:52;;;;;;;;;24.75;23.75;;;;;18.16;60.93;101456.28;5076481;28;46290;-59
2021/06/23 09:46:23;;;;;;;;;24.75;24.75;;;;;18.21;61.15;101460.53;5074150;27;45766;-62
2021/06/23 09:48:51;;;;;;;;;23.25;23.25;;;;;18.26;61.32;101452.28;5076273;28;45614;-58
2021/06/23 09:51:21;;;;;;;;;26.25;25.00;;;;;18.30;61.00;101456.59;5079479;27;45603;-59
2021/06/23 09:53:48;;;;;;;;;23.75;23.75;;;;;18.33;60.81;101451.09;5077115;27;47168;-60
2021/06/23 09:56:37;;;;;;;;;22.50;22.50;;;;;18.37;60.76;101452.69;5059203;28;45288;-60
2021/06/23 09:59:04;;;;;;;;;28.50;26.00;;;;;18.41;60.97;101453.44;5066736;28;45360;-60
2021/06/23 10:01:37;;;;;;;;;22.25;21.25;;;;;18.44;60.87;101447.97;5076627;27;45426;-60
2021/06/23 10:04:08;;;;;;;;;27.50;26.25;;;;;18.47;60.76;101456.75;5078291;28;48331;-59
2021/06/23 10:06:44;;;;;;;;;27.25;25.00;;;;;18.51;60.69;101453.00;5073295;28;45440;-59
2021/06/23 10:09:20;;;;;;;;;30.50;26.50;;;;;18.54;60.61;101452.84;5074459;27;45580;-59
2021/06/23 10:11:49;;;;;;;;;28.75;27.25;;;;;18.58;60.64;101460.81;5077836;28;45654;-60
2021/06/23 10:14:15;;;;;;;;;32.75;30.00;;;;;18.60;60.69;101461.59;5073054;28;46284;-60
2021/06/23 10:16:42;;;;;;;;;25.75;24.00;;;;;18.61;60.46;101455.28;5078020;27;45908;-59
2021/06/23 10:19:08;;;;;;;;;27.00;24.00;;;;;18.60;60.29;101467.84;5070631;28;45725;-60
2021/06/23 10:21:39;;;;;;;;;27.25;26.25;;;;;18.60;60.15;101464.28;5061999;28;45371;-60
2021/06/23 10:24:08;;;;;;;;;26.75;26.50;;;;;18.58;60.28;101460.81;5060385;28;47544;-60
2021/06/23 10:26:38;;;;;;;;;24.25;23.25;;;;;18.57;60.11;101464.44;5078238;27;45301;-59
2021/06/23 10:29:06;;;;;;;;;22.50;21.50;;;;;18.56;60.34;101470.75;5073563;27;45633;-64
2021/06/23 10:31:33;;;;;;;;;26.25;24.00;;;;;18.56;60.45;101463.56;5077116;28;45499;-60
2021/06/23 10:33:58;;;;;;;;;22.00;21.25;;;;;18.55;60.16;101464.50;5077980;28;47568;-59
2021/06/23 10:36:24;;;;;;;;;24.75;23.25;;;;;18.55;60.40;101475.25;5083314;27;45436;-60
2021/06/23 10:38:51;;;;;;;;;23.25;21.50;;;;;18.59;60.31;101471.50;5072836;27;45397;-59
2021/06/23 10:41:18;;;;;;;;;29.00;26.25;;;;;18.63;60.29;101469.53;5069556;27;45956;-60
2021/06/23 10:44:03;;;;;;;;;25.50;24.25;;;;;18.63;60.10;101474.91;5088134;27;47315;-59
2021/06/23 10:46:38;;;;;;;;;25.75;25.75;;;;;18.60;59.99;101475.91;5080238;27;46429;-60
2021/06/23 10:49:04;;;;;;;;;23.75;23.75;;;;;18.60;59.99;101473.22;5066281;27;45709;-61
2021/06/23 10:51:29;;;;;;;;;24.50;23.75;;;;;18.59;60.17;101473.31;5065991;27;45445;-61
2021/06/23 10:53:55;;;;;;;;;28.75;28.75;;;;;18.61;60.42;101477.66;5072944;27;48154;-61
2021/06/23 10:56:44;;;;;;;;;27.00;25.75;;;;;18.64;60.51;101477.56;5073444;28;45345;-61
2021/06/23 10:59:33;;;;;;;;;23.25;23.25;;;;;18.71;60.15;101478.19;5072486;28;45596;-60
2021/06/23 11:02:12;;;;;;;;;25.50;24.25;;;;;18.74;60.27;101478.03;5064204;28;45326;-59
2021/06/23 11:05:03;;;;;;;;;20.00;19.50;;;;;18.77;60.14;101480.59;5074324;28;46165;-60
2021/06/23 11:07:39;;;;;;;;;27.00;22.25;;;;;18.80;60.17;101483.13;5072744;28;45434;-59
2021/06/23 11:10:11;;;;;;;;;22.00;22.00;;;;;18.84;60.04;101483.91;5066736;27;45439;-59
2021/06/23 11:12:42;;;;;;;;;23.75;23.00;;;;;18.87;60.13;101491.84;5072649;28;45420;-59
2021/06/23 11:15:16;;;;;;;;;22.50;21.50;;;;;18.90;60.00;101491.69;5073798;28;47215;-59
2021/06/23 11:17:46;;;;;;;;;24.25;21.50;;;;;18.89;60.23;101493.50;5080544;28;45883;-60
2021/06/23 11:20:18;;;;;;;;;21.75;20.75;;;;;18.91;59.94;101506.88;5078944;28;45614;-59
2021/06/23 11:22:44;;;;;;;;;18.00;17.25;;;;;18.90;59.80;101506.00;5073214;28;45357;-59
2021/06/23 11:25:26;;;;;;;;;21.00;21.00;;;;;18.91;59.67;101506.88;5075102;28;46901;-63
2021/06/23 11:28:11;;;;;;;;;22.50;22.25;;;;;18.93;59.78;101505.91;5076127;28;45749;-60
2021/06/23 11:31:08;;;;;;;;;27.00;23.00;;;;;18.96;59.74;101502.19;5077280;27;45580;-60
2021/06/23 11:33:36;;;;;;;;;23.50;22.50;;;;;19.00;59.82;101501.97;5076367;27;45622;-62
2021/06/23 11:36:07;;;;;;;;;17.75;17.75;;;;;19.01;59.75;101509.09;5080525;28;48691;-61
2021/06/23 11:38:34;;;;;;;;;22.00;21.75;;;;;19.01;59.72;101506.41;5080612;27;45950;-61